Vohburg — V2OW7 — position and weather

sailwx.info

Track history (hours):
 
Tides and Currents Weather Stations Pressure Air Temp Water Temp Dewpoint Dewpoint Depression Visibility Wind Speed Wind Dir Waves Ship Positions

Vohburg

Last reported at 2017-Mar-24 21:33 UTC. Time now 2017-Mar-24 22:08 UTC.
Position N 51°22' E 002°33'.

Length 140 m; draft 6.9 m.

Type: Ship (hazmat cat A). MMSI: 305773000.

Date/timePositionNaut miles runAvg speedWind from/ knotsBaromVisibWave heightAir tempDewpointWater temp
2017-Mar-24 21:33N 51°22' E 002°33'1615.7
2017-Mar-24 20:33N 51°19' E 002°08'1616.2
2017-Mar-24 19:34N 51°29' E 001°47'1313.3
2017-Mar-24 18:33N 51°27' E 001°26'1414.3
2017-Mar-24 17:33N 51°30' E 001°03'1313.5
2017-Mar-24 16:34N 51°26' E 000°43'1 0.8
2017-Mar-24 15:31N 51°26' E 000°41'0 0.0
2017-Mar-24 14:31N 51°26' E 000°41'0 0.0
2017-Mar-24 13:31N 51°26' E 000°41'0 0.0
2017-Mar-24 12:32N 51°26' E 000°41'0 0.0
2017-Mar-24 11:33N 51°26' E 000°41'0 0.0
2017-Mar-24 10:31N 51°26' E 000°41'0 0.0
2017-Mar-24 09:33N 51°26' E 000°41'0 0.3
2017-Mar-24 08:33N 51°26' E 000°42'1414.4
2017-Mar-24 07:34N 51°30' E 001°04'1615.6
2017-Mar-24 06:34N 51°26' E 001°28'9 9.0
2017-Mar-24 05:33N 51°32' E 001°39'1313.3
2017-Mar-24 04:33N 51°45' E 001°43'1514.9
2017-Mar-24 03:33N 52°00' E 001°46'3315.2
2017-Mar-24 01:25N 52°32' E 001°54'1213.9
2017-Mar-24 00:34N 52°44' E 001°55'1313.1
2017-Mar-23 23:34N 52°52' E 001°38'1313.1
2017-Mar-23 22:33N 53°03' E 001°26'1313.4
2017-Mar-23 21:34N 53°14' E 001°14'5513.9
2017-Mar-23 17:33N 53°59' E 000°20'1515.3
2017-Mar-23 16:33N 54°11' E 000°03'1515.5
2017-Mar-23 15:33N 54°23' W 000°14'358 7.3
2017-Mar-21 14:17N 57°25' E 008°56'810.6
2017-Mar-21 13:32N 57°28' E 009°10'1110.7
2017-Mar-21 12:33N 57°33' E 009°27'2410.7
2017-Mar-21 10:16N 57°43' E 010°08'810.9
2017-Mar-21 09:33N 57°46' E 010°22'10 9.7
2017-Mar-21 08:33N 57°48' E 010°40'1010.0
2017-Mar-21 07:33N 57°43' E 010°56'1212.2
2017-Mar-21 06:33N 57°34' E 011°13'1212.3
2017-Mar-21 05:33N 57°25' E 011°28'1212.1
2017-Mar-21 04:33N 57°14' E 011°35'1312.2
2017-Mar-21 03:29N 57°02' E 011°44'4411.2
2017-Mar-20 23:33N 56°21' E 012°16'1111.6
2017-Mar-20 22:33N 56°12' E 012°28'1312.8
2017-Mar-20 21:33N 56°01' E 012°41'1212.1
2017-Mar-20 20:33N 55°49' E 012°43'1211.6
2017-Mar-20 19:33N 55°37' E 012°42'1212.3
2017-Mar-20 18:33N 55°25' E 012°41'1111.1
2017-Mar-20 17:33N 55°16' E 012°53'1413.7
2017-Mar-20 16:33N 55°15' E 013°17'1413.7
2017-Mar-20 15:31N 55°14' E 013°42'1413.6
2017-Mar-20 14:31N 55°14' E 014°05'1111.5
2017-Mar-20 13:33N 55°18' E 014°23'1413.2
2017-Mar-20 12:31N 55°28' E 014°39'1212.7
2017-Mar-20 11:33N 55°34' E 014°58'1413.9
2017-Mar-20 10:33N 55°41' E 015°19'1414.2
2017-Mar-20 09:34N 55°48' E 015°42'1414.2
2017-Mar-20 08:34N 55°55' E 016°04'1716.6
2017-Mar-20 07:33N 56°03' E 016°30'1615.8
2017-Mar-20 06:33N 56°12' E 016°52'284 6.1
2017-Mar-18 07:32N 59°36' E 023°06'1414.2
2017-Mar-18 06:33N 59°40' E 023°33'1614.1
2017-Mar-18 05:25N 59°44' E 024°04'6814.0
2017-Mar-18 00:33N 59°59' E 026°16'1413.9
2017-Mar-17 23:34N 60°01' E 026°44'1413.5
2017-Mar-17 22:34N 60°02' E 027°11'1514.2
2017-Mar-17 21:32N 60°09' E 027°35'1313.6
2017-Mar-17 20:34N 60°10' E 028°02'1414.0
2017-Mar-17 19:33N 60°04' E 028°28'1414.3
2017-Mar-17 18:33N 60°02' E 028°56'1812.8
2017-Mar-17 17:12N 60°01' E 029°31'6 8.7
2017-Mar-17 16:32N 59°59' E 029°42'1 1.0
2017-Mar-17 15:31N 60°00' E 029°43'0 0.0
2017-Mar-17 14:31N 60°00' E 029°43'0 0.0
2017-Mar-17 13:32N 60°00' E 029°43'0 0.0
2017-Mar-17 12:30N 60°00' E 029°43'0 0.0
2017-Mar-17 11:24N 60°00' E 029°43'0 0.0
2017-Mar-17 10:18N 60°00' E 029°43'0 0.0
2017-Mar-17 09:29N 60°00' E 029°43'0 0.0
2017-Mar-17 08:26N 60°00' E 029°43'0 0.0
2017-Mar-17 07:33N 60°00' E 029°43'0 0.0
2017-Mar-17 06:31N 60°00' E 029°43'0 0.0
2017-Mar-17 05:33N 60°00' E 029°43'2 2.2
2017-Mar-17 04:33N 60°00' E 029°38'9 8.6
2017-Mar-17 03:29N 60°02' E 029°20'1111.8
2017-Mar-17 02:33N 60°02' E 028°58'1414.6
2017-Mar-17 01:33N 60°02' E 028°29'1514.8
2017-Mar-17 00:33N 60°09' E 028°02'1515.3
2017-Mar-16 23:34N 60°07' E 027°32'1816.4
2017-Mar-16 22:27N 59°58' E 027°00'1516.5
2017-Mar-16 21:33N 59°58' E 026°30'1616.2
2017-Mar-16 20:34N 59°57' E 025°59'72 4.2
2017-Mar-16 03:20N 59°35' E 023°41'29215.5
2017-Mar-15 08:31N 56°12' E 017°07'1515.7
2017-Mar-15 07:33N 56°03' E 016°46'1615.9
2017-Mar-15 06:33N 55°55' E 016°21'1615.8
2017-Mar-15 05:33N 55°47' E 015°57'1615.8
2017-Mar-15 04:34N 55°39' E 015°32'1615.8
2017-Mar-15 03:33N 55°32' E 015°07'1616.0
2017-Mar-15 02:34N 55°25' E 014°42'1615.8
2017-Mar-15 01:33N 55°13' E 014°24'1615.9
2017-Mar-15 00:33N 55°00' E 014°07'1616.2
2017-Mar-14 23:33N 54°55' E 013°40'1615.6
2017-Mar-14 22:32N 54°51' E 013°14'1616.2
2017-Mar-14 21:33N 54°46' E 012°48'  
Track history (hours):
 
Tides and Currents Weather Stations Pressure Air Temp Water Temp Dewpoint Dewpoint Depression Visibility Wind Speed Wind Dir Waves Ship Positions

Vohburg

Last reported at 2017-Mar-24 21:33 UTC. Time now 2017-Mar-24 22:08 UTC.
Position N 51°22' E 002°33'.

Length 140 m; draft 6.9 m.

Type: Ship (hazmat cat A). MMSI: 305773000.

Date/timePositionNaut miles runAvg speedWind from/ knotsBaromVisibWave heightAir tempDewpointWater temp
2017-Mar-24 21:33N 51°22' E 002°33'1615.7
2017-Mar-24 20:33N 51°19' E 002°08'1616.2
2017-Mar-24 19:34N 51°29' E 001°47'1313.3
2017-Mar-24 18:33N 51°27' E 001°26'1414.3
2017-Mar-24 17:33N 51°30' E 001°03'1313.5
2017-Mar-24 16:34N 51°26' E 000°43'1 0.8
2017-Mar-24 15:31N 51°26' E 000°41'0 0.0
2017-Mar-24 14:31N 51°26' E 000°41'0 0.0
2017-Mar-24 13:31N 51°26' E 000°41'0 0.0
2017-Mar-24 12:32N 51°26' E 000°41'0 0.0
2017-Mar-24 11:33N 51°26' E 000°41'0 0.0
2017-Mar-24 10:31N 51°26' E 000°41'0 0.0
2017-Mar-24 09:33N 51°26' E 000°41'0 0.3
2017-Mar-24 08:33N 51°26' E 000°42'1414.4
2017-Mar-24 07:34N 51°30' E 001°04'1615.6
2017-Mar-24 06:34N 51°26' E 001°28'9 9.0
2017-Mar-24 05:33N 51°32' E 001°39'1313.3
2017-Mar-24 04:33N 51°45' E 001°43'1514.9
2017-Mar-24 03:33N 52°00' E 001°46'3315.2
2017-Mar-24 01:25N 52°32' E 001°54'1213.9
2017-Mar-24 00:34N 52°44' E 001°55'1313.1
2017-Mar-23 23:34N 52°52' E 001°38'1313.1
2017-Mar-23 22:33N 53°03' E 001°26'1313.4
2017-Mar-23 21:34N 53°14' E 001°14'5513.9
2017-Mar-23 17:33N 53°59' E 000°20'1515.3
2017-Mar-23 16:33N 54°11' E 000°03'1515.5
2017-Mar-23 15:33N 54°23' W 000°14'358 7.3
2017-Mar-21 14:17N 57°25' E 008°56'810.6
2017-Mar-21 13:32N 57°28' E 009°10'1110.7
2017-Mar-21 12:33N 57°33' E 009°27'2410.7
2017-Mar-21 10:16N 57°43' E 010°08'810.9
2017-Mar-21 09:33N 57°46' E 010°22'10 9.7
2017-Mar-21 08:33N 57°48' E 010°40'1010.0
2017-Mar-21 07:33N 57°43' E 010°56'1212.2
2017-Mar-21 06:33N 57°34' E 011°13'1212.3
2017-Mar-21 05:33N 57°25' E 011°28'1212.1
2017-Mar-21 04:33N 57°14' E 011°35'1312.2
2017-Mar-21 03:29N 57°02' E 011°44'4411.2
2017-Mar-20 23:33N 56°21' E 012°16'1111.6
2017-Mar-20 22:33N 56°12' E 012°28'1312.8
2017-Mar-20 21:33N 56°01' E 012°41'1212.1
2017-Mar-20 20:33N 55°49' E 012°43'1211.6
2017-Mar-20 19:33N 55°37' E 012°42'1212.3
2017-Mar-20 18:33N 55°25' E 012°41'1111.1
2017-Mar-20 17:33N 55°16' E 012°53'1413.7
2017-Mar-20 16:33N 55°15' E 013°17'1413.7
2017-Mar-20 15:31N 55°14' E 013°42'1413.6
2017-Mar-20 14:31N 55°14' E 014°05'1111.5
2017-Mar-20 13:33N 55°18' E 014°23'1413.2
2017-Mar-20 12:31N 55°28' E 014°39'1212.7
2017-Mar-20 11:33N 55°34' E 014°58'1413.9
2017-Mar-20 10:33N 55°41' E 015°19'1414.2
2017-Mar-20 09:34N 55°48' E 015°42'1414.2
2017-Mar-20 08:34N 55°55' E 016°04'1716.6
2017-Mar-20 07:33N 56°03' E 016°30'1615.8
2017-Mar-20 06:33N 56°12' E 016°52'284 6.1
2017-Mar-18 07:32N 59°36' E 023°06'1414.2
2017-Mar-18 06:33N 59°40' E 023°33'1614.1
2017-Mar-18 05:25N 59°44' E 024°04'6814.0
2017-Mar-18 00:33N 59°59' E 026°16'1413.9
2017-Mar-17 23:34N 60°01' E 026°44'1413.5
2017-Mar-17 22:34N 60°02' E 027°11'1514.2
2017-Mar-17 21:32N 60°09' E 027°35'1313.6
2017-Mar-17 20:34N 60°10' E 028°02'1414.0
2017-Mar-17 19:33N 60°04' E 028°28'1414.3
2017-Mar-17 18:33N 60°02' E 028°56'1812.8
2017-Mar-17 17:12N 60°01' E 029°31'6 8.7
2017-Mar-17 16:32N 59°59' E 029°42'1 1.0
2017-Mar-17 15:31N 60°00' E 029°43'0 0.0
2017-Mar-17 14:31N 60°00' E 029°43'0 0.0
2017-Mar-17 13:32N 60°00' E 029°43'0 0.0
2017-Mar-17 12:30N 60°00' E 029°43'0 0.0
2017-Mar-17 11:24N 60°00' E 029°43'0 0.0
2017-Mar-17 10:18N 60°00' E 029°43'0 0.0
2017-Mar-17 09:29N 60°00' E 029°43'0 0.0
2017-Mar-17 08:26N 60°00' E 029°43'0 0.0
2017-Mar-17 07:33N 60°00' E 029°43'0 0.0
2017-Mar-17 06:31N 60°00' E 029°43'0 0.0
2017-Mar-17 05:33N 60°00' E 029°43'2 2.2
2017-Mar-17 04:33N 60°00' E 029°38'9 8.6
2017-Mar-17 03:29N 60°02' E 029°20'1111.8
2017-Mar-17 02:33N 60°02' E 028°58'1414.6
2017-Mar-17 01:33N 60°02' E 028°29'1514.8
2017-Mar-17 00:33N 60°09' E 028°02'1515.3
2017-Mar-16 23:34N 60°07' E 027°32'1816.4
2017-Mar-16 22:27N 59°58' E 027°00'1516.5
2017-Mar-16 21:33N 59°58' E 026°30'1616.2
2017-Mar-16 20:34N 59°57' E 025°59'72 4.2
2017-Mar-16 03:20N 59°35' E 023°41'29215.5
2017-Mar-15 08:31N 56°12' E 017°07'1515.7
2017-Mar-15 07:33N 56°03' E 016°46'1615.9
2017-Mar-15 06:33N 55°55' E 016°21'1615.8
2017-Mar-15 05:33N 55°47' E 015°57'1615.8
2017-Mar-15 04:34N 55°39' E 015°32'1615.8
2017-Mar-15 03:33N 55°32' E 015°07'1616.0
2017-Mar-15 02:34N 55°25' E 014°42'1615.8
2017-Mar-15 01:33N 55°13' E 014°24'1615.9
2017-Mar-15 00:33N 55°00' E 014°07'1616.2
2017-Mar-14 23:33N 54°55' E 013°40'1615.6
2017-Mar-14 22:32N 54°51' E 013°14'1616.2
2017-Mar-14 21:33N 54°46' E 012°48'  

Dump ship's entire track history